createdAt,value
2022-10-23T00:02:30.967Z,37.15
2022-10-23T00:04:58.181Z,35.58
2022-10-23T00:07:31.868Z,32.97
2022-10-23T00:09:59.068Z,24.77
2022-10-23T00:12:34.824Z,32.97
2022-10-23T00:15:01.965Z,32.20
2022-10-23T00:17:39.129Z,32.78
2022-10-23T00:20:13.883Z,39.42
2022-10-23T00:22:54.999Z,31.60
2022-10-23T00:25:22.115Z,39.88
2022-10-23T00:27:49.275Z,28.48
2022-10-23T00:30:22.908Z,46.28
2022-10-23T00:32:50.030Z,36.47
2022-10-23T00:35:24.021Z,42.72
2022-10-23T00:37:51.295Z,53.90
2022-10-23T00:40:18.581Z,50.08
2022-10-23T00:42:51.955Z,37.53
2022-10-23T00:45:26.566Z,33.15
2022-10-23T00:48:00.923Z,32.80
2022-10-23T00:50:29.175Z,39.72
2022-10-23T00:53:03.991Z,38.40
2022-10-23T00:55:31.393Z,55.17
2022-10-23T00:58:04.927Z,46.97
2022-10-23T01:00:41.888Z,41.25
2022-10-23T01:03:16.103Z,46.35
2022-10-23T01:05:55.103Z,40.05
2022-10-23T01:08:36.888Z,40.40
2022-10-23T01:11:09.761Z,37.58
2022-10-23T01:16:45.164Z,35.67
2022-10-23T01:21:52.851Z,47.78
2022-10-23T01:24:39.008Z,35.50
2022-10-23T01:27:24.719Z,39.70
2022-10-23T01:30:16.018Z,35.42
2022-10-23T01:32:43.416Z,43.17
2022-10-23T01:37:49.958Z,25.45
2022-10-23T01:40:23.298Z,30.80
2022-10-23T01:43:00.887Z,45.08
2022-10-23T01:45:34.960Z,40.10
2022-10-23T01:48:09.859Z,38.00
2022-10-23T01:50:37.652Z,25.80
2022-10-23T01:53:11.899Z,40.83
2022-10-23T01:58:19.986Z,32.97
2022-10-23T02:00:47.798Z,38.45
2022-10-23T02:03:16.554Z,26.10
2022-10-23T02:05:50.883Z,26.65
2022-10-23T02:08:24.788Z,26.48
2022-10-23T02:11:11.479Z,33.88
2022-10-23T02:13:57.957Z,26.48
2022-10-23T02:16:43.672Z,29.77
2022-10-23T02:19:20.940Z,26.30
2022-10-23T02:22:15.332Z,24.73
2022-10-23T02:25:00.791Z,26.13
2022-10-23T02:27:32.726Z,27.90
2022-10-23T02:30:11.787Z,28.98
2022-10-23T02:32:42.134Z,35.42
2022-10-23T02:35:09.647Z,23.98
2022-10-23T02:37:44.297Z,30.52
2022-10-23T02:40:18.959Z,29.88
2022-10-23T02:43:07.987Z,29.70
2022-10-23T02:45:51.853Z,34.08
2022-10-23T02:48:24.265Z,36.67
2022-10-23T02:51:00.808Z,47.15
2022-10-23T02:53:27.939Z,48.28
2022-10-23T02:55:58.329Z,49.97
2022-10-23T02:58:51.991Z,56.83
2022-10-23T03:01:22.208Z,62.10
2022-10-23T03:03:58.867Z,67.82
2022-10-23T03:06:26.362Z,132.93
2022-10-23T03:09:00.894Z,126.97
2022-10-23T03:11:28.088Z,145.75
2022-10-23T03:14:02.043Z,85.35
2022-10-23T03:16:29.355Z,93.93
2022-10-23T03:18:56.463Z,83.32
2022-10-23T03:21:29.916Z,96.85
2022-10-23T03:24:03.883Z,84.80
2022-10-23T03:26:38.076Z,100.28
2022-10-23T03:29:05.315Z,97.25
2022-10-23T03:31:32.443Z,90.63
2022-10-23T03:34:08.134Z,96.57
2022-10-23T03:36:35.685Z,104.47
2022-10-23T03:39:11.108Z,75.82
2022-10-23T03:41:38.362Z,92.43
2022-10-23T03:46:43.923Z,95.28
2022-10-23T03:49:11.151Z,96.38
2022-10-23T03:51:48.059Z,108.85
2022-10-23T03:54:15.260Z,88.45
2022-10-23T03:56:42.622Z,117.32
2022-10-23T03:59:21.951Z,106.00
2022-10-23T04:01:49.299Z,95.05
2022-10-23T04:04:16.660Z,129.48
2022-10-23T04:06:49.892Z,106.93
2022-10-23T04:09:23.829Z,122.18
2022-10-23T04:11:58.077Z,115.25
2022-10-23T04:14:25.358Z,104.07
2022-10-23T04:16:52.450Z,139.07
2022-10-23T04:19:25.904Z,113.07
2022-10-23T04:21:59.892Z,146.35
2022-10-23T04:24:40.955Z,127.60
2022-10-23T04:27:08.108Z,136.93
2022-10-23T04:29:35.344Z,121.57
2022-10-23T04:32:09.129Z,123.50
2022-10-23T04:34:36.313Z,96.60
2022-10-23T04:37:03.447Z,85.40
2022-10-23T04:39:37.003Z,80.25
2022-10-23T04:42:04.294Z,87.60
2022-10-23T04:44:38.020Z,67.18
2022-10-23T04:47:05.245Z,73.55
2022-10-23T04:49:32.374Z,71.97
2022-10-23T04:52:06.107Z,59.47
2022-10-23T04:54:39.881Z,71.18
2022-10-23T04:57:14.065Z,85.80
2022-10-23T04:59:41.225Z,75.00
2022-10-23T05:02:08.381Z,61.40
2022-10-23T05:04:41.938Z,66.38
2022-10-23T05:07:09.297Z,51.45
2022-10-23T05:09:43.170Z,59.67
2022-10-23T05:12:10.320Z,57.92
2022-10-23T05:14:37.410Z,47.60
2022-10-23T05:17:22.923Z,55.92
2022-10-23T05:20:11.826Z,39.15
2022-10-23T05:25:12.889Z,35.22
2022-10-23T05:27:46.954Z,36.53
2022-10-23T05:30:14.228Z,30.45
2022-10-23T05:32:41.973Z,30.98
2022-10-23T05:35:18.931Z,27.02
2022-10-23T05:37:46.967Z,23.52
2022-10-23T05:40:21.007Z,28.83
2022-10-23T05:42:48.589Z,27.00
2022-10-23T05:45:15.926Z,22.10
2022-10-23T05:47:50.963Z,25.90
2022-10-23T05:50:18.357Z,20.67
2022-10-23T05:52:55.911Z,25.13
2022-10-23T05:55:23.091Z,21.98
2022-10-23T05:57:56.983Z,19.33
2022-10-23T06:00:24.307Z,19.55
2022-10-23T06:02:51.395Z,18.05
2022-10-23T06:05:24.957Z,18.13
2022-10-23T06:07:52.119Z,15.70
2022-10-23T06:10:25.956Z,13.93
2022-10-23T06:12:53.103Z,12.93
2022-10-23T06:15:20.186Z,10.73
2022-10-23T06:17:54.006Z,10.32
2022-10-23T06:20:40.868Z,11.73
2022-10-23T06:23:15.089Z,11.02
2022-10-23T06:25:42.352Z,12.23
2022-10-23T06:28:09.447Z,8.57
2022-10-23T06:30:45.950Z,12.07
2022-10-23T06:33:13.057Z,11.38
2022-10-23T06:35:46.977Z,8.90
2022-10-23T06:38:14.147Z,8.88
2022-10-23T06:40:41.512Z,10.05
2022-10-23T06:43:16.051Z,7.78
2022-10-23T06:45:43.259Z,6.57
2022-10-23T06:48:17.015Z,7.45
2022-10-23T06:50:44.628Z,8.02
2022-10-23T06:55:52.854Z,6.75
2022-10-23T06:58:22.934Z,9.65
2022-10-23T07:03:24.409Z,10.35
2022-10-23T07:05:51.490Z,10.13
2022-10-23T07:08:24.964Z,14.80
2022-10-23T07:10:52.134Z,8.57
2022-10-23T07:13:26.038Z,13.50
2022-10-23T07:15:53.253Z,10.73
2022-10-23T07:18:20.516Z,10.90
2022-10-23T07:20:56.064Z,10.48
2022-10-23T07:23:29.860Z,18.45
2022-10-23T07:26:04.005Z,14.88
2022-10-23T07:28:31.666Z,10.32
2022-10-23T07:30:59.304Z,16.95
2022-10-23T07:36:00.780Z,38.22
2022-10-23T07:38:35.127Z,53.17
2022-10-23T07:41:02.389Z,78.55
2022-10-23T07:43:29.628Z,77.57
2022-10-23T07:46:04.090Z,50.22
2022-10-23T07:48:31.432Z,114.32
2022-10-23T07:51:00.868Z,65.03
2022-10-23T07:53:34.958Z,47.03
2022-10-23T07:56:03.072Z,95.72
2022-10-23T07:58:37.124Z,68.57
2022-10-23T08:01:05.013Z,86.07
2022-10-23T08:03:33.290Z,93.25
2022-10-23T08:06:08.071Z,86.35
2022-10-23T08:08:35.316Z,86.78
2022-10-23T08:11:09.160Z,75.32
2022-10-23T08:13:36.390Z,115.75
2022-10-23T08:16:03.565Z,99.47
2022-10-23T08:18:37.061Z,134.30
2022-10-23T08:21:10.955Z,142.90
2022-10-23T08:23:45.217Z,102.13
2022-10-23T08:26:12.629Z,111.65
2022-10-23T08:28:40.016Z,85.80
2022-10-23T08:31:18.151Z,98.68
2022-10-23T08:33:45.415Z,110.28
2022-10-23T08:36:30.079Z,114.28
2022-10-23T08:38:58.118Z,113.13
2022-10-23T08:41:38.034Z,98.38
2022-10-23T08:44:10.839Z,122.40
2022-10-23T08:46:48.154Z,72.00
2022-10-23T08:49:26.135Z,74.30
2022-10-23T08:52:02.000Z,78.25
2022-10-23T08:54:49.399Z,54.50
2022-10-23T08:57:25.105Z,57.20
2022-10-23T08:59:59.707Z,136.43
2022-10-23T09:02:35.074Z,98.10
2022-10-23T09:05:02.357Z,55.88
2022-10-23T09:07:41.184Z,49.50
2022-10-23T09:10:11.704Z,49.47
2022-10-23T09:12:39.639Z,54.78
2022-10-23T09:15:15.984Z,45.22
2022-10-23T09:17:44.709Z,43.85
2022-10-23T09:20:18.074Z,42.67
2022-10-23T09:23:01.835Z,36.58
2022-10-23T09:25:37.115Z,62.08
2022-10-23T09:28:05.780Z,30.73
2022-10-23T09:30:36.294Z,59.83
2022-10-23T09:33:29.994Z,30.50
2022-10-23T09:36:02.361Z,32.20
2022-10-23T09:38:36.070Z,44.42
2022-10-23T09:41:12.507Z,25.27
2022-10-23T09:43:46.153Z,31.15
2022-10-23T09:46:13.455Z,24.48
2022-10-23T09:48:42.466Z,43.15
2022-10-23T09:51:27.040Z,32.42
2022-10-23T09:53:56.055Z,33.50
2022-10-23T09:56:41.062Z,23.30
2022-10-23T09:59:14.261Z,25.85
2022-10-23T10:02:08.210Z,21.02
2022-10-23T10:04:41.973Z,27.75
2022-10-23T10:07:35.956Z,24.90
2022-10-23T10:10:14.985Z,23.73
2022-10-23T10:12:59.124Z,27.20
2022-10-23T10:15:41.684Z,22.25
2022-10-23T23:18:13.254Z,33.92
2022-10-23T23:20:47.228Z,51.25
2022-10-23T23:23:14.815Z,52.58
2022-10-23T23:28:15.498Z,83.55
2022-10-23T23:30:42.809Z,47.70
2022-10-23T23:33:10.785Z,62.15
2022-10-23T23:35:51.304Z,87.38
2022-10-23T23:38:18.382Z,71.53
2022-10-23T23:40:58.300Z,84.70
2022-10-23T23:43:25.421Z,102.63
2022-10-23T23:45:52.615Z,106.65
2022-10-23T23:48:26.277Z,60.58
2022-10-23T23:50:53.476Z,85.15
2022-10-23T23:53:27.379Z,72.55
2022-10-23T23:55:54.542Z,82.07
2022-10-23T23:58:21.716Z,84.22
